createdAt,value
2023-05-24T00:02:14.715Z,11.63
2023-05-24T00:04:42.716Z,11.72
2023-05-24T00:07:10.633Z,11.63
2023-05-24T00:09:39.370Z,11.56
2023-05-24T00:12:07.644Z,11.50
2023-05-24T00:14:35.546Z,11.56
2023-05-24T00:17:03.615Z,11.77
2023-05-24T00:19:33.013Z,11.60
2023-05-24T00:22:01.133Z,11.37
2023-05-24T00:24:29.571Z,11.35
2023-05-24T00:26:57.629Z,11.30
2023-05-24T00:29:25.390Z,11.25
2023-05-24T00:31:54.605Z,11.04
2023-05-24T00:34:22.470Z,11.00
2023-05-24T00:36:51.806Z,11.03
2023-05-24T00:39:19.707Z,11.13
2023-05-24T00:41:47.584Z,11.18
2023-05-24T00:44:15.618Z,11.19
2023-05-24T00:46:43.961Z,11.38
2023-05-24T00:49:12.288Z,11.39
2023-05-24T00:51:40.648Z,11.42
2023-05-24T00:54:09.953Z,11.45
2023-05-24T00:56:38.448Z,11.38
2023-05-24T00:59:07.229Z,11.39
2023-05-24T01:01:35.636Z,11.40
2023-05-24T01:04:05.981Z,11.35
2023-05-24T01:06:46.220Z,11.35
2023-05-24T01:09:23.273Z,11.34
2023-05-24T01:12:05.680Z,11.18
2023-05-24T01:14:45.020Z,11.04
2023-05-24T01:17:20.595Z,11.17
2023-05-24T01:19:55.320Z,11.17
2023-05-24T01:22:54.322Z,11.01
2023-05-24T01:25:41.818Z,11.07
2023-05-24T01:28:13.594Z,11.05
2023-05-24T01:30:42.956Z,11.02
2023-05-24T01:33:10.916Z,10.92
2023-05-24T01:35:42.490Z,11.11
2023-05-24T01:38:12.172Z,10.95
2023-05-24T01:40:42.657Z,10.80
2023-05-24T01:43:17.377Z,10.67
2023-05-24T01:45:53.913Z,10.63
2023-05-24T01:48:32.431Z,10.74
2023-05-24T01:51:01.833Z,10.57
2023-05-24T01:53:42.399Z,10.58
2023-05-24T01:56:12.815Z,10.65
2023-05-24T01:58:43.999Z,10.69
2023-05-24T02:01:13.345Z,10.80
2023-05-24T02:03:41.718Z,10.82
2023-05-24T02:06:10.944Z,10.93
2023-05-24T02:08:40.898Z,10.97
2023-05-24T02:11:08.867Z,11.13
2023-05-24T02:13:36.763Z,11.04
2023-05-24T02:16:06.482Z,11.24
2023-05-24T02:18:34.752Z,11.49
2023-05-24T02:21:03.231Z,11.31
2023-05-24T02:23:31.938Z,11.16
2023-05-24T02:26:01.408Z,11.14
2023-05-24T02:28:32.170Z,11.01
2023-05-24T02:31:00.550Z,11.10
2023-05-24T02:33:30.231Z,11.12
2023-05-24T02:35:58.837Z,11.17
2023-05-24T02:38:26.689Z,11.11
2023-05-24T02:40:54.454Z,11.06
2023-05-24T02:43:22.368Z,11.10
2023-05-24T02:45:50.587Z,11.08
2023-05-24T02:48:18.802Z,11.08
2023-05-24T02:50:47.955Z,11.07
2023-05-24T02:53:15.853Z,11.12
2023-05-24T02:55:46.662Z,11.07
2023-05-24T02:58:17.820Z,10.95
2023-05-24T03:00:48.872Z,10.89
2023-05-24T03:03:19.358Z,10.91
2023-05-24T03:05:48.749Z,11.32
2023-05-24T03:08:16.733Z,11.13
2023-05-24T03:10:44.843Z,10.85
2023-05-24T03:13:14.621Z,10.73
2023-05-24T03:15:43.913Z,11.01
2023-05-24T03:18:11.689Z,10.90
2023-05-24T03:20:41.526Z,10.84
2023-05-24T03:23:11.747Z,10.87
2023-05-24T03:25:39.629Z,10.84
2023-05-24T03:28:07.666Z,10.94
2023-05-24T03:30:35.729Z,10.86
2023-05-24T03:33:03.853Z,10.85
2023-05-24T03:35:32.356Z,10.82
2023-05-24T03:38:00.541Z,10.80
2023-05-24T03:40:33.340Z,10.91
2023-05-24T03:43:06.233Z,10.72
2023-05-24T03:45:54.801Z,10.58
2023-05-24T03:48:22.610Z,10.66
2023-05-24T03:50:52.310Z,10.56
2023-05-24T03:53:23.141Z,10.62
2023-05-24T03:55:53.009Z,10.53
2023-05-24T03:58:21.074Z,10.59
2023-05-24T04:00:49.024Z,10.62
2023-05-24T04:03:17.339Z,10.71
2023-05-24T04:05:45.808Z,10.84
2023-05-24T04:08:15.211Z,10.67
2023-05-24T04:10:43.657Z,10.58
2023-05-24T04:13:14.658Z,10.53
2023-05-24T04:15:43.700Z,10.54
2023-05-24T04:18:12.803Z,10.40
2023-05-24T04:20:41.621Z,10.35
2023-05-24T04:23:10.690Z,10.27
2023-05-24T04:25:38.979Z,10.32
2023-05-24T04:28:07.626Z,10.30
2023-05-24T04:30:36.968Z,10.26
2023-05-24T04:33:05.457Z,10.41
2023-05-24T04:35:34.120Z,10.63
2023-05-24T04:38:02.035Z,10.47
2023-05-24T04:40:30.110Z,10.57
2023-05-24T04:42:57.928Z,10.45
2023-05-24T04:45:26.938Z,10.54
2023-05-24T04:47:56.317Z,10.55
2023-05-24T04:50:25.024Z,10.63
2023-05-24T04:52:52.800Z,10.57
2023-05-24T04:55:21.185Z,10.63
2023-05-24T04:57:49.300Z,10.53
2023-05-24T05:00:18.163Z,10.61
2023-05-24T05:02:47.178Z,10.63
2023-05-24T05:05:16.620Z,10.54
2023-05-24T05:07:45.308Z,10.73
2023-05-24T05:10:13.108Z,10.82
2023-05-24T05:12:41.228Z,10.76
2023-05-24T05:15:10.404Z,10.87
2023-05-24T05:17:38.255Z,10.91
2023-05-24T05:20:07.775Z,10.95
2023-05-24T05:22:37.010Z,10.88
2023-05-24T05:25:05.374Z,10.88
2023-05-24T05:27:33.321Z,11.01
2023-05-24T05:30:01.213Z,10.92
2023-05-24T05:32:29.130Z,11.16
2023-05-24T05:34:57.136Z,11.89
2023-05-24T05:37:25.915Z,12.06
2023-05-24T05:39:55.286Z,11.61
2023-05-24T05:42:23.063Z,11.42
2023-05-24T05:44:52.549Z,11.54
2023-05-24T05:47:20.454Z,11.59
2023-05-24T05:49:48.214Z,11.55
2023-05-24T05:52:15.991Z,11.74
2023-05-24T05:54:44.261Z,11.53
2023-05-24T05:57:16.613Z,11.42
2023-05-24T05:59:45.514Z,11.67
2023-05-24T06:02:13.839Z,11.77
2023-05-24T06:04:41.731Z,11.99
2023-05-24T06:07:09.545Z,11.67
2023-05-24T06:09:37.956Z,11.77
2023-05-24T06:12:09.115Z,11.43
2023-05-24T06:14:44.755Z,11.48
2023-05-24T06:17:15.430Z,11.64
2023-05-24T06:19:48.281Z,11.45
2023-05-24T06:22:16.366Z,11.34
2023-05-24T06:24:44.534Z,11.44
2023-05-24T06:27:12.253Z,11.53
2023-05-24T06:29:42.611Z,11.75
2023-05-24T06:32:11.824Z,11.93
2023-05-24T06:34:39.794Z,11.96
2023-05-24T06:37:10.957Z,12.26
2023-05-24T06:39:39.500Z,11.87
2023-05-24T06:42:07.783Z,11.87
2023-05-24T06:44:38.532Z,11.75
2023-05-24T06:47:09.464Z,11.83
2023-05-24T06:49:39.057Z,11.86
2023-05-24T06:52:12.003Z,11.82
2023-05-24T06:54:43.402Z,11.84
2023-05-24T06:57:18.601Z,11.92
2023-05-24T06:59:52.738Z,11.97
2023-05-24T07:02:27.421Z,11.93
2023-05-24T07:04:56.155Z,11.94
2023-05-24T07:07:34.621Z,12.00
2023-05-24T07:10:02.747Z,12.05
2023-05-24T07:12:33.308Z,12.32
2023-05-24T07:15:01.368Z,12.26
2023-05-24T07:17:31.010Z,12.34
2023-05-24T07:19:59.178Z,12.33
2023-05-24T07:22:29.042Z,12.25
2023-05-24T07:24:56.993Z,12.30
2023-05-24T07:27:25.216Z,12.44
2023-05-24T07:29:54.282Z,12.63
2023-05-24T07:32:22.580Z,12.83
2023-05-24T07:34:52.534Z,12.65
2023-05-24T07:37:20.451Z,12.72
2023-05-24T07:39:48.679Z,12.92
2023-05-24T07:42:16.496Z,12.92
2023-05-24T07:44:44.584Z,12.86
2023-05-24T07:47:12.798Z,13.01
2023-05-24T07:49:40.791Z,13.27
2023-05-24T07:52:10.008Z,12.99
2023-05-24T07:54:38.297Z,13.27
2023-05-24T07:57:11.526Z,13.36
2023-05-24T07:59:39.776Z,13.63
2023-05-24T08:02:11.229Z,13.39
2023-05-24T08:04:39.298Z,13.51
2023-05-24T08:07:09.455Z,13.40
2023-05-24T08:09:40.353Z,13.61
2023-05-24T08:12:08.859Z,13.56
2023-05-24T08:14:36.751Z,13.42
2023-05-24T08:17:05.759Z,13.49
2023-05-24T08:19:36.011Z,13.70
2023-05-24T08:22:05.936Z,13.73
2023-05-24T08:24:33.981Z,13.64
2023-05-24T08:27:04.874Z,13.79
2023-05-24T08:29:32.784Z,13.82
2023-05-24T08:32:02.517Z,13.96
2023-05-24T08:34:30.913Z,13.74
2023-05-24T08:36:58.860Z,13.88
2023-05-24T08:39:26.908Z,14.08
2023-05-24T08:42:08.632Z,13.97
2023-05-24T08:44:46.752Z,14.04
2023-05-24T08:47:15.244Z,14.07
2023-05-24T08:49:43.529Z,14.08
2023-05-24T08:52:13.206Z,14.14
2023-05-24T08:54:42.989Z,14.13
2023-05-24T08:57:12.546Z,14.49
2023-05-24T08:59:43.211Z,14.40
2023-05-24T09:02:14.677Z,14.48
2023-05-24T09:04:44.632Z,14.69
2023-05-24T09:07:14.880Z,14.94
2023-05-24T09:09:45.367Z,15.01
2023-05-24T09:12:32.544Z,14.90
2023-05-24T09:15:09.248Z,14.57
2023-05-24T09:17:38.941Z,14.60
2023-05-24T09:20:10.208Z,15.09
2023-05-24T09:22:41.010Z,15.71
2023-05-24T09:25:10.426Z,16.22
2023-05-24T09:27:38.859Z,16.88
2023-05-24T09:30:14.039Z,16.65
2023-05-24T09:32:42.690Z,16.31
2023-05-24T09:35:11.957Z,16.19
2023-05-24T09:37:40.512Z,15.89
2023-05-24T09:40:20.344Z,15.17
2023-05-24T09:42:51.626Z,15.07
2023-05-24T09:45:22.362Z,15.56
2023-05-24T09:47:50.259Z,16.33
2023-05-24T09:50:18.788Z,16.88
2023-05-24T09:52:47.245Z,17.09
2023-05-24T09:55:16.749Z,17.21
2023-05-24T09:57:46.092Z,17.66
2023-05-24T10:00:17.681Z,18.48
2023-05-24T10:02:53.551Z,17.92
2023-05-24T10:05:22.522Z,18.30
2023-05-24T10:07:50.490Z,18.90
2023-05-24T10:10:19.148Z,18.83
2023-05-24T10:12:48.072Z,19.61
2023-05-24T10:15:16.870Z,19.96
2023-05-24T10:17:44.994Z,20.10
2023-05-24T10:20:15.908Z,20.38
2023-05-24T10:22:46.857Z,19.93
2023-05-24T10:25:21.738Z,19.89
2023-05-24T10:27:52.669Z,18.91
2023-05-24T10:30:32.588Z,18.56
2023-05-24T10:33:02.448Z,18.49
2023-05-24T10:35:33.743Z,19.67
2023-05-24T10:38:07.116Z,19.60
2023-05-24T10:40:42.048Z,19.50
2023-05-24T10:43:10.434Z,20.09
2023-05-24T10:45:39.746Z,20.54
2023-05-24T10:48:25.656Z,20.09
2023-05-24T10:50:55.148Z,19.80
2023-05-24T10:53:27.247Z,20.39
2023-05-24T10:55:56.453Z,20.50
2023-05-24T10:58:30.814Z,20.17
2023-05-24T11:00:58.609Z,20.10
2023-05-24T11:03:33.406Z,20.05
2023-05-24T11:06:03.018Z,20.10
2023-05-24T11:08:33.136Z,20.74
2023-05-24T11:11:19.231Z,20.68
2023-05-24T11:13:50.783Z,19.92
2023-05-24T11:16:34.922Z,20.05
2023-05-24T11:19:13.477Z,19.93
2023-05-24T11:21:45.233Z,19.42
2023-05-24T11:24:13.595Z,19.74
2023-05-24T11:26:41.776Z,19.77
2023-05-24T11:29:09.781Z,20.12
2023-05-24T11:31:43.250Z,20.58
2023-05-24T11:34:12.534Z,19.85
2023-05-24T11:36:41.192Z,19.85
2023-05-24T11:39:10.822Z,20.34
2023-05-24T11:41:40.868Z,20.42
2023-05-24T11:44:10.520Z,20.30
2023-05-24T11:46:40.194Z,20.54
2023-05-24T11:49:08.390Z,20.40
2023-05-24T11:51:37.674Z,20.29
2023-05-24T11:54:06.027Z,20.03
2023-05-24T11:56:35.441Z,20.50
2023-05-24T11:59:13.200Z,20.75
2023-05-24T12:01:43.326Z,20.75
2023-05-24T12:04:12.309Z,21.01
2023-05-24T12:06:41.646Z,20.90
2023-05-24T12:09:13.419Z,21.09
2023-05-24T12:11:44.726Z,20.73
2023-05-24T12:14:14.494Z,20.93
2023-05-24T12:16:43.900Z,20.72
2023-05-24T12:19:31.753Z,20.91
2023-05-24T12:22:02.147Z,20.35
2023-05-24T12:24:32.566Z,20.26
2023-05-24T12:27:07.199Z,20.59
2023-05-24T12:29:36.590Z,20.65
2023-05-24T12:32:05.849Z,20.84
2023-05-24T12:34:34.042Z,20.72
2023-05-24T12:37:02.409Z,21.15
2023-05-24T12:39:34.402Z,21.08
2023-05-24T12:42:05.078Z,20.49
2023-05-24T12:44:35.727Z,20.03
2023-05-24T12:47:06.618Z,20.36
2023-05-24T12:49:35.607Z,20.52
2023-05-24T12:52:03.676Z,20.78
2023-05-24T12:54:32.658Z,21.15
2023-05-24T12:57:02.658Z,21.50
2023-05-24T12:59:32.361Z,20.70
2023-05-24T13:02:04.324Z,19.68
2023-05-24T13:04:33.911Z,19.63
2023-05-24T13:07:04.575Z,19.93
2023-05-24T13:09:34.459Z,19.31
2023-05-24T13:12:05.301Z,19.66
2023-05-24T13:14:34.516Z,19.60
2023-05-24T13:17:04.386Z,19.22
2023-05-24T13:19:32.965Z,19.53
2023-05-24T13:22:01.305Z,20.19
2023-05-24T13:24:29.272Z,21.00
2023-05-24T13:26:58.232Z,21.08
2023-05-24T13:32:00.850Z,21.68
2023-05-24T13:34:28.739Z,21.64
2023-05-24T13:36:57.429Z,21.63
2023-05-24T13:39:25.274Z,21.72
2023-05-24T13:41:53.432Z,20.94
2023-05-24T13:44:22.739Z,19.63
2023-05-24T13:46:50.930Z,19.11
2023-05-24T13:49:20.997Z,18.85
2023-05-24T13:51:49.412Z,18.63
2023-05-24T13:54:17.642Z,18.44
2023-05-24T13:56:45.584Z,19.00
2023-05-24T13:59:14.198Z,20.17
2023-05-24T14:01:42.541Z,20.18
2023-05-24T14:04:10.867Z,19.28
2023-05-24T14:06:40.390Z,18.40
2023-05-24T14:09:08.985Z,18.51
2023-05-24T14:11:37.592Z,18.48
2023-05-24T14:16:37.413Z,18.38
2023-05-24T14:19:05.720Z,18.10
2023-05-24T14:21:33.665Z,18.08
2023-05-24T14:24:04.337Z,17.90
2023-05-24T14:26:32.245Z,17.43
2023-05-24T14:29:00.878Z,17.57
2023-05-24T14:31:28.948Z,17.31
2023-05-24T14:33:56.932Z,17.15
2023-05-24T14:36:24.775Z,17.21
2023-05-24T14:38:52.872Z,17.16
2023-05-24T14:41:22.950Z,17.11
2023-05-24T14:43:51.081Z,17.09
2023-05-24T14:46:20.024Z,17.26
2023-05-24T14:48:47.908Z,17.21
2023-05-24T14:51:15.621Z,17.74
2023-05-24T14:53:43.413Z,18.25
2023-05-24T14:56:13.710Z,18.22
2023-05-24T14:58:43.151Z,18.13
2023-05-24T15:01:11.578Z,17.97
2023-05-24T15:03:40.504Z,18.03
2023-05-24T15:06:08.904Z,17.78
2023-05-24T15:08:36.805Z,17.65
2023-05-24T15:11:06.005Z,18.02
2023-05-24T15:13:33.881Z,17.94
2023-05-24T15:16:02.991Z,17.74
2023-05-24T15:18:32.100Z,17.68
2023-05-24T15:21:01.590Z,17.58
2023-05-24T15:23:29.788Z,17.75
2023-05-24T15:25:57.656Z,17.56
2023-05-24T15:28:26.763Z,17.42
2023-05-24T15:30:54.901Z,17.09
2023-05-24T15:33:26.466Z,17.17
2023-05-24T15:35:57.286Z,17.22
2023-05-24T15:38:25.646Z,17.11
2023-05-24T15:40:53.718Z,16.75
2023-05-24T15:43:22.143Z,16.73
2023-05-24T15:45:50.944Z,17.13
2023-05-24T15:48:18.663Z,16.86
2023-05-24T15:51:25.614Z,17.00
2023-05-24T15:53:37.100Z,17.41
2023-05-24T15:56:05.301Z,17.25
2023-05-24T15:58:33.261Z,16.98
2023-05-24T16:01:04.196Z,16.99
2023-05-24T16:03:32.227Z,16.68
2023-05-24T16:06:01.908Z,16.42
2023-05-24T16:08:30.020Z,16.39
2023-05-24T16:10:58.298Z,16.57
2023-05-24T16:13:26.360Z,16.60
2023-05-24T16:15:54.513Z,16.44
2023-05-24T16:18:23.694Z,16.58
2023-05-24T16:20:52.552Z,16.85
2023-05-24T16:23:23.129Z,16.62
2023-05-24T16:25:51.340Z,16.47
2023-05-24T16:28:23.796Z,16.23
2023-05-24T16:30:56.055Z,16.30
2023-05-24T16:33:25.050Z,16.28
2023-05-24T16:35:56.498Z,16.22
2023-05-24T16:38:26.747Z,16.31
2023-05-24T16:40:54.950Z,16.22
2023-05-24T16:43:23.581Z,16.08
2023-05-24T16:45:51.857Z,16.05
2023-05-24T16:48:21.849Z,16.24
2023-05-24T16:50:50.552Z,16.09
2023-05-24T16:53:20.385Z,16.17
2023-05-24T16:55:53.672Z,16.12
2023-05-24T16:58:22.253Z,15.96
2023-05-24T17:00:51.325Z,15.98
2023-05-24T17:03:22.235Z,15.86
2023-05-24T17:05:50.415Z,15.99
2023-05-24T17:08:19.229Z,15.97
2023-05-24T17:10:47.297Z,15.87
2023-05-24T17:13:16.955Z,16.03
2023-05-24T17:15:45.066Z,15.82
2023-05-24T17:18:12.853Z,15.66
2023-05-24T17:20:40.658Z,15.78
2023-05-24T17:23:08.875Z,15.79
2023-05-24T17:25:37.230Z,15.89
2023-05-24T17:28:05.295Z,15.91
2023-05-24T17:30:35.153Z,15.81
2023-05-24T17:33:03.428Z,15.80
2023-05-24T17:35:31.259Z,15.91
2023-05-24T17:37:59.330Z,15.78
2023-05-24T17:40:27.379Z,15.62
2023-05-24T17:42:55.242Z,15.56
2023-05-24T17:45:23.805Z,15.68
2023-05-24T17:47:53.564Z,15.55
2023-05-24T17:50:22.347Z,15.64
2023-05-24T17:52:50.451Z,15.45
2023-05-24T17:55:19.306Z,15.58
2023-05-24T17:57:47.077Z,15.32
2023-05-24T18:00:16.945Z,15.21
2023-05-24T18:02:48.713Z,15.13
2023-05-24T18:05:18.866Z,15.24
2023-05-24T18:07:46.879Z,15.08
2023-05-24T18:10:15.187Z,14.93
2023-05-24T18:12:43.576Z,14.92
2023-05-24T18:15:12.867Z,14.94
2023-05-24T18:17:40.780Z,14.96
2023-05-24T18:20:09.970Z,14.93
2023-05-24T18:22:39.623Z,14.71
2023-05-24T18:25:09.098Z,14.72
2023-05-24T18:27:37.275Z,14.60
2023-05-24T18:30:07.772Z,14.62
2023-05-24T18:32:36.703Z,14.53
2023-05-24T18:35:05.576Z,14.44
2023-05-24T18:37:33.488Z,14.42
2023-05-24T18:40:03.407Z,14.43
2023-05-24T18:42:32.146Z,14.40
2023-05-24T18:44:59.886Z,14.45
2023-05-24T18:47:30.913Z,14.41
2023-05-24T18:49:59.615Z,14.19
2023-05-24T18:52:28.646Z,14.38
2023-05-24T18:54:58.652Z,14.36
2023-05-24T18:57:29.987Z,14.41
2023-05-24T18:59:57.800Z,14.48
2023-05-24T19:02:26.041Z,14.28
2023-05-24T19:04:53.992Z,14.28
2023-05-24T19:07:21.786Z,14.26
2023-05-24T19:09:49.655Z,14.25
2023-05-24T19:12:17.481Z,14.25
2023-05-24T19:14:46.646Z,14.24
2023-05-24T19:17:15.707Z,14.31
2023-05-24T19:19:43.652Z,14.18
2023-05-24T19:22:11.363Z,14.13
2023-05-24T19:24:39.306Z,14.25
2023-05-24T19:27:09.034Z,14.28
2023-05-24T19:29:38.301Z,14.39
2023-05-24T19:32:08.312Z,14.27
2023-05-24T19:34:37.469Z,14.14
2023-05-24T19:37:06.291Z,14.34
2023-05-24T19:39:34.011Z,14.16
2023-05-24T19:42:02.637Z,14.21
2023-05-24T19:44:31.336Z,14.21
2023-05-24T19:46:59.340Z,14.20
2023-05-24T19:49:29.108Z,14.07
2023-05-24T19:51:57.050Z,14.01
2023-05-24T19:54:25.472Z,13.85
2023-05-24T19:56:55.128Z,13.73
2023-05-24T19:59:23.353Z,13.86
2023-05-24T20:01:51.537Z,13.73
2023-05-24T20:04:20.645Z,13.70
2023-05-24T20:06:50.224Z,13.74
2023-05-24T20:09:19.154Z,13.75
2023-05-24T20:11:47.803Z,13.73
2023-05-24T20:14:16.305Z,13.70
2023-05-24T20:16:44.283Z,13.79
2023-05-24T20:19:12.517Z,13.73
2023-05-24T20:21:40.358Z,13.68
2023-05-24T20:24:09.759Z,13.91
2023-05-24T20:26:37.850Z,13.84
2023-05-24T20:29:05.860Z,13.81
2023-05-24T20:31:34.782Z,13.84
2023-05-24T20:34:02.718Z,13.79
2023-05-24T20:36:32.197Z,13.77
2023-05-24T20:39:00.001Z,13.74
2023-05-24T20:41:30.462Z,13.73
2023-05-24T20:43:58.423Z,13.72
2023-05-24T20:46:26.872Z,13.85
2023-05-24T20:48:56.169Z,13.68
2023-05-24T20:51:24.851Z,13.78
2023-05-24T20:53:53.290Z,13.82
2023-05-24T20:56:23.230Z,13.67
2023-05-24T20:58:54.257Z,13.64
2023-05-24T21:01:25.154Z,13.71
2023-05-24T21:03:53.886Z,13.65
2023-05-24T21:06:21.891Z,13.59
2023-05-24T21:08:50.168Z,13.46
2023-05-24T21:11:18.424Z,13.45
2023-05-24T21:13:46.381Z,13.44
2023-05-24T21:16:16.178Z,13.46
2023-05-24T21:18:43.994Z,13.38
2023-05-24T21:21:12.168Z,13.24
2023-05-24T21:23:40.650Z,13.21
2023-05-24T21:26:08.565Z,13.08
2023-05-24T21:28:36.599Z,13.01
2023-05-24T21:31:05.701Z,13.09
2023-05-24T21:33:36.209Z,12.99
2023-05-24T21:36:04.476Z,13.00
2023-05-24T21:38:32.449Z,12.95
2023-05-24T21:41:00.270Z,12.90
2023-05-24T21:43:28.616Z,12.79
2023-05-24T21:45:56.981Z,12.68
2023-05-24T21:48:25.024Z,12.61
2023-05-24T21:50:54.327Z,12.65
2023-05-24T21:53:22.579Z,12.59
2023-05-24T21:55:51.765Z,12.63
2023-05-24T21:58:19.877Z,12.63
2023-05-24T22:00:48.312Z,12.63
2023-05-24T22:03:19.268Z,12.46
2023-05-24T22:05:47.472Z,12.54
2023-05-24T22:08:17.001Z,12.50
2023-05-24T22:10:45.557Z,12.40
2023-05-24T22:13:14.024Z,12.36
2023-05-24T22:15:42.522Z,12.29
2023-05-24T22:18:10.660Z,12.18
2023-05-24T22:20:38.745Z,12.22
2023-05-24T22:23:06.671Z,12.13
2023-05-24T22:25:36.785Z,12.17
2023-05-24T22:28:05.421Z,11.86
2023-05-24T22:30:35.198Z,11.91
2023-05-24T22:33:05.168Z,11.73
2023-05-24T22:35:33.707Z,11.76
2023-05-24T22:38:01.691Z,11.69
2023-05-24T22:40:29.688Z,11.67
2023-05-24T22:42:58.791Z,11.69
2023-05-24T22:45:26.876Z,11.85
2023-05-24T22:47:58.477Z,11.64
2023-05-24T22:50:27.154Z,11.63
2023-05-24T22:52:56.680Z,11.63
2023-05-24T22:55:25.198Z,11.75
2023-05-24T22:57:53.458Z,11.66
2023-05-24T23:00:23.610Z,11.55
2023-05-24T23:02:51.651Z,11.49
2023-05-24T23:05:21.607Z,11.48
2023-05-24T23:07:49.711Z,11.43
2023-05-24T23:10:17.529Z,11.38
2023-05-24T23:12:46.135Z,11.38
2023-05-24T23:15:16.706Z,11.41
2023-05-24T23:17:52.536Z,11.42
2023-05-24T23:20:20.907Z,11.34
2023-05-24T23:22:48.912Z,11.39
2023-05-24T23:25:16.645Z,11.39
2023-05-24T23:27:45.187Z,11.26
2023-05-24T23:30:13.369Z,11.32
2023-05-24T23:32:41.802Z,11.35
2023-05-24T23:35:14.055Z,11.26
2023-05-24T23:37:43.117Z,11.18
2023-05-24T23:40:16.912Z,11.26
2023-05-24T23:42:51.059Z,11.32
2023-05-24T23:45:20.824Z,11.14
2023-05-24T23:47:51.046Z,11.08
2023-05-24T23:50:22.876Z,10.99
2023-05-24T23:52:55.485Z,10.93
2023-05-24T23:55:29.172Z,11.09
2023-05-24T23:57:57.256Z,10.99
